SASA/SLA METAR and TAF weather

Enter ICAO airport designator
Station Type Date Time Source
SASA METAR 2022/06/30 14:00 UTC NOAA

SASA 301400Z 02007KT CAVOK 15/02 Q1019 RMK PP000


Station Type Date Time Source
SASA Decoded METAR 2022/06/30 14:00 UTC NOAA

Salta Aerodrome, Argentina (SASA) 24-51S 065-29W 1221M
Jun 30, 2022 - 10:00 AM EDT / 2022.06.30 1400 UTC
Wind: from the NNE (020 degrees) at 8 MPH (7 KT):0
Visibility: greater than 7 mile(s):0
Temperature: 59 F (15 C)
Dew Point: 35 F (2 C)
Relative Humidity: 41%
Pressure (altimeter): 30.09 in. Hg (1019 hPa)
ob: SASA 301400Z 02007KT CAVOK 15/02 Q1019 RMK PP000
cycle: 14

Station Type Date Time Source
SASA TAF 2022/06/30 12:27 UTC NOAA

TAF SASA 301100Z 3012/0112 23005KT CAVOK TX22/3018Z TNM02/0110Z
BECMG 3014/3017 05005KT 9999 SCT035
BECMG 0100/0103 32005KT CAVOK

Example: see airport list